Startpagina
METAR-TAF:

METAR-TAF

Vliegvelden :

Pointe-à-Pitre, Guadeloupe

breedte: 16-16N, lengte: 061-31W, hoogte: 11 m

Actueel weer

Dit bericht is 20 minuten geleden gemaakt, om 12:00 UTC
Wind 10 kt uit het oosten
Temperatuur 28°C
Vochtigheid 70%
Druk 1016 hPa
Zicht 10 km of meer

METAR: TFFR 211200Z AUTO 09010KT 9999 FEW029/// ///TCU 28/22 Q1016 BECMG NSC

Tijdstip: 08:20 (12:20 UTC)

Verwachting

Dit bericht is 1 uur en het 20 minuten geleden gemaakt, om 11:00 UTC
Verwachting geldig van 21 om 12 UTC tot 22 om 12 UTC
Wind 6 kt uit het oosten
Zicht 10 km of meer
geen wolken onder 1500 m en geen cumulonimbus
Wijzigt naar
van 21 om 14 UTC tot 21 om 16 UTC
Wind 15 kt uit het oosten
Verspreide wolken op 3000 ft
Wijzigt naar
van 21 om 22 UTC tot 21 om 24 UTC
Wind 3 kt uit variabele richting

TAF: TFFR 211100Z 2112/2212 08006KT CAVOK BECMG 2114/2116 10015KT SCT030 BECMG 2122/2124 VRB03KT

Waarnemingen en weersverwachtingen van meer dan 4000 vliegvelden (METAR en TAF).

De beschikbare stations zijn de gele en rode punten op de kaart.

Ga met uw muis naar het station om de naam te zien.

Klik dan om waarnemingen en weersverwachtingen te zien.

kaart wijzigen: klik op de groene knoppen met een zwart kruis om in te zoomen, op de groene knop met een streepje om uit te zoomen of op de groene pijlen voor aangrenzende kaarten.


METAR-TAF: